CCA1397 KLAX-KDEN
Flight info
| Callsign | CCA1397 |
|---|---|
| Flight time | 1h 44m |
| Altitude | 37000 |
| Route | OSHNN1 BEALE J146 DICEE BUMMP SSKII4 |
| Aircraft | B738/M-SDE2E3FGHIRWXY/LB1 |
Departure
| Time | 2026-04-25 06:14 |
|---|---|
| Airport | Los Angeles International Airport (KLAX) |
Arrival
| Time | 2026-04-25 07:58 |
|---|---|
| Airport | Denver International Airport (KDEN) |
| Time | Latitude | Longitude | Altitude | Speed | Heading |
|---|---|---|---|---|---|
| 2026-04-25 05:28 | 33.94299 | -118.38413 | 124 ft | 0 kts | 314° |
| 2026-04-25 06:00 | 33.94296 | -118.38409 | 124 ft | 2 kts | 313° |
| 2026-04-25 06:00 | 33.94286 | -118.38393 | 124 ft | 2 kts | 301° |
| 2026-04-25 06:01 | 33.94279 | -118.38375 | 119 ft | 2 kts | 272° |
| 2026-04-25 06:01 | 33.94286 | -118.38359 | 121 ft | 2 kts | 191° |
| 2026-04-25 06:01 | 33.94291 | -118.38358 | 120 ft | 0 kts | 175° |
| 2026-04-25 06:09 | 33.94285 | -118.38357 | 120 ft | 2 kts | 174° |
| 2026-04-25 06:09 | 33.94259 | -118.38346 | 123 ft | 5 kts | 155° |
| 2026-04-25 06:09 | 33.94215 | -118.38337 | 122 ft | 7 kts | 174° |
| 2026-04-25 06:09 | 33.94162 | -118.38339 | 123 ft | 8 kts | 188° |
| 2026-04-25 06:10 | 33.94111 | -118.38344 | 123 ft | 7 kts | 178° |
| 2026-04-25 06:10 | 33.94067 | -118.38319 | 121 ft | 7 kts | 131° |
| 2026-04-25 06:10 | 33.94057 | -118.38262 | 123 ft | 7 kts | 85° |
| 2026-04-25 06:10 | 33.94062 | -118.38199 | 124 ft | 8 kts | 83° |
| 2026-04-25 06:11 | 33.94069 | -118.38131 | 124 ft | 8 kts | 83° |
| 2026-04-25 06:11 | 33.94075 | -118.38074 | 124 ft | 0 kts | 82° |
| 2026-04-25 06:11 | 33.94076 | -118.38072 | 124 ft | 1 kts | 82° |
| 2026-04-25 06:11 | 33.94076 | -118.38065 | 124 ft | 1 kts | 83° |
| 2026-04-25 06:12 | 33.94077 | -118.38045 | 124 ft | 3 kts | 96° |
| 2026-04-25 06:12 | 33.94061 | -118.38013 | 122 ft | 6 kts | 144° |
| 2026-04-25 06:12 | 33.94012 | -118.38000 | 122 ft | 8 kts | 184° |
| 2026-04-25 06:12 | 33.93982 | -118.38060 | 122 ft | 10 kts | 260° |
| 2026-04-25 06:13 | 33.93959 | -118.38281 | 125 ft | 60 kts | 263° |
| 2026-04-25 06:13 | 33.93877 | -118.39071 | 125 ft | 130 kts | 263° |
| 2026-04-25 06:13 | 33.93724 | -118.40406 | 171 ft | 183 kts | 262° |
| 2026-04-25 06:14 | 33.93431 | -118.43608 | 1884 ft | 197 kts | 264° |
| 2026-04-25 06:14 | 33.93298 | -118.45254 | 2656 ft | 200 kts | 264° |
| 2026-04-25 06:14 | 33.92930 | -118.46894 | 3174 ft | 204 kts | 237° |
| 2026-04-25 06:14 | 33.91961 | -118.48176 | 3515 ft | 222 kts | 224° |
| 2026-04-25 06:15 | 33.90710 | -118.49469 | 3593 ft | 249 kts | 219° |
| 2026-04-25 06:15 | 33.89307 | -118.50712 | 4228 ft | 251 kts | 216° |
| 2026-04-25 06:15 | 33.87814 | -118.51896 | 4777 ft | 265 kts | 214° |
| 2026-04-25 06:15 | 33.86166 | -118.53116 | 4987 ft | 291 kts | 212° |
| 2026-04-25 06:16 | 33.84383 | -118.54383 | 5598 ft | 298 kts | 212° |
| 2026-04-25 06:16 | 33.82626 | -118.55609 | 6786 ft | 282 kts | 211° |
| 2026-04-25 06:16 | 33.80895 | -118.56603 | 7874 ft | 275 kts | 196° |
| 2026-04-25 06:16 | 33.78974 | -118.56563 | 8558 ft | 285 kts | 163° |
| 2026-04-25 06:17 | 33.77256 | -118.55322 | 9254 ft | 292 kts | 147° |
| 2026-04-25 06:17 | 33.75493 | -118.54100 | 9902 ft | 293 kts | 160° |
| 2026-04-25 06:17 | 33.73550 | -118.53265 | 10370 ft | 303 kts | 167° |
| 2026-04-25 06:17 | 33.71468 | -118.52478 | 10502 ft | 328 kts | 159° |
| 2026-04-25 06:18 | 33.69571 | -118.50783 | 10642 ft | 357 kts | 131° |
| 2026-04-25 06:18 | 33.68383 | -118.48084 | 10919 ft | 376 kts | 111° |
| 2026-04-25 06:18 | 33.67545 | -118.45062 | 11410 ft | 385 kts | 110° |
| 2026-04-25 06:18 | 33.66706 | -118.41997 | 11985 ft | 389 kts | 111° |
| 2026-04-25 06:19 | 33.65821 | -118.38907 | 12560 ft | 394 kts | 111° |
| 2026-04-25 06:19 | 33.64904 | -118.35788 | 13089 ft | 400 kts | 111° |
| 2026-04-25 06:19 | 33.64317 | -118.32492 | 13528 ft | 411 kts | 92° |
| 2026-04-25 06:19 | 33.64386 | -118.29057 | 14098 ft | 414 kts | 89° |
| 2026-04-25 06:20 | 33.64455 | -118.25582 | 14634 ft | 417 kts | 90° |
| 2026-04-25 06:20 | 33.64481 | -118.22090 | 15159 ft | 420 kts | 89° |
| 2026-04-25 06:20 | 33.64971 | -118.18681 | 15600 ft | 424 kts | 68° |
| 2026-04-25 06:20 | 33.66393 | -118.15600 | 16138 ft | 422 kts | 48° |
| 2026-04-25 06:21 | 33.68392 | -118.13045 | 16672 ft | 421 kts | 41° |
| 2026-04-25 06:21 | 33.70500 | -118.10565 | 16997 ft | 425 kts | 41° |
| 2026-04-25 06:21 | 33.72627 | -118.08099 | 16983 ft | 425 kts | 40° |
| 2026-04-25 06:21 | 33.74754 | -118.05631 | 16997 ft | 425 kts | 40° |
| 2026-04-25 06:22 | 33.76877 | -118.03153 | 16962 ft | 426 kts | 41° |
| 2026-04-25 06:22 | 33.78998 | -118.00657 | 16967 ft | 426 kts | 41° |
| 2026-04-25 06:22 | 33.81109 | -117.98157 | 16964 ft | 426 kts | 41° |
| 2026-04-25 06:22 | 33.83218 | -117.95649 | 17001 ft | 426 kts | 41° |
| 2026-04-25 06:23 | 33.85325 | -117.93136 | 17004 ft | 426 kts | 41° |
| 2026-04-25 06:23 | 33.87428 | -117.90622 | 17001 ft | 426 kts | 41° |
| 2026-04-25 06:23 | 33.89532 | -117.88105 | 17014 ft | 426 kts | 41° |
| 2026-04-25 06:23 | 33.91614 | -117.85612 | 17087 ft | 431 kts | 41° |
| 2026-04-25 06:24 | 33.93748 | -117.83057 | 17631 ft | 432 kts | 41° |
| 2026-04-25 06:24 | 33.95873 | -117.80509 | 18229 ft | 432 kts | 41° |
| 2026-04-25 06:24 | 33.98014 | -117.77940 | 18659 ft | 436 kts | 41° |
| 2026-04-25 06:24 | 34.00172 | -117.75350 | 19079 ft | 439 kts | 41° |
| 2026-04-25 06:25 | 34.02345 | -117.72740 | 19491 ft | 442 kts | 41° |
| 2026-04-25 06:25 | 34.04525 | -117.70120 | 19933 ft | 444 kts | 41° |
| 2026-04-25 06:25 | 34.06726 | -117.67471 | 20384 ft | 447 kts | 41° |
| 2026-04-25 06:25 | 34.08934 | -117.64812 | 20818 ft | 449 kts | 41° |
| 2026-04-25 06:26 | 34.11125 | -117.62172 | 21228 ft | 452 kts | 41° |
| 2026-04-25 06:26 | 34.13354 | -117.59483 | 21631 ft | 455 kts | 41° |
| 2026-04-25 06:26 | 34.15599 | -117.56773 | 22044 ft | 457 kts | 41° |
| 2026-04-25 06:26 | 34.17854 | -117.54048 | 22433 ft | 460 kts | 41° |
| 2026-04-25 06:27 | 34.20120 | -117.51309 | 22818 ft | 462 kts | 41° |
| 2026-04-25 06:27 | 34.22398 | -117.48553 | 23229 ft | 465 kts | 41° |
| 2026-04-25 06:27 | 34.24693 | -117.45772 | 23597 ft | 468 kts | 41° |
| 2026-04-25 06:27 | 34.27010 | -117.42965 | 23912 ft | 470 kts | 41° |
| 2026-04-25 06:28 | 34.29328 | -117.40154 | 24231 ft | 473 kts | 41° |
| 2026-04-25 06:28 | 34.31652 | -117.37333 | 24523 ft | 475 kts | 41° |
| 2026-04-25 06:28 | 34.34000 | -117.34479 | 24814 ft | 478 kts | 41° |
| 2026-04-25 06:28 | 34.36347 | -117.31625 | 25117 ft | 480 kts | 41° |
| 2026-04-25 06:29 | 34.38712 | -117.28747 | 25413 ft | 483 kts | 41° |
| 2026-04-25 06:29 | 34.41052 | -117.25896 | 25690 ft | 485 kts | 41° |
| 2026-04-25 06:29 | 34.43439 | -117.22987 | 25945 ft | 487 kts | 41° |
| 2026-04-25 06:29 | 34.45834 | -117.20063 | 26268 ft | 490 kts | 41° |
| 2026-04-25 06:30 | 34.48239 | -117.17126 | 26509 ft | 492 kts | 40° |
| 2026-04-25 06:30 | 34.50655 | -117.14174 | 26778 ft | 494 kts | 40° |
| 2026-04-25 06:30 | 34.53080 | -117.11208 | 27042 ft | 496 kts | 40° |
| 2026-04-25 06:30 | 34.55516 | -117.08224 | 27312 ft | 498 kts | 40° |
| 2026-04-25 06:31 | 34.57964 | -117.05223 | 27574 ft | 501 kts | 40° |
| 2026-04-25 06:31 | 34.60418 | -117.02213 | 27814 ft | 503 kts | 40° |
| 2026-04-25 06:31 | 34.62882 | -116.99188 | 28079 ft | 505 kts | 40° |
| 2026-04-25 06:31 | 34.65356 | -116.96149 | 28317 ft | 507 kts | 40° |
| 2026-04-25 06:32 | 34.67837 | -116.93090 | 28555 ft | 509 kts | 40° |
| 2026-04-25 06:32 | 34.70329 | -116.90021 | 28808 ft | 511 kts | 40° |
| 2026-04-25 06:32 | 34.72831 | -116.86942 | 29062 ft | 513 kts | 40° |
| 2026-04-25 06:32 | 34.75342 | -116.83848 | 29290 ft | 515 kts | 40° |
| 2026-04-25 06:33 | 34.77868 | -116.80730 | 29525 ft | 517 kts | 40° |
| 2026-04-25 06:33 | 34.80384 | -116.77621 | 29879 ft | 516 kts | 40° |
| 2026-04-25 06:33 | 34.82889 | -116.74519 | 30259 ft | 513 kts | 40° |
| 2026-04-25 06:33 | 34.85367 | -116.71450 | 30429 ft | 515 kts | 40° |
| 2026-04-25 06:34 | 34.87888 | -116.68329 | 30581 ft | 518 kts | 40° |
| 2026-04-25 06:34 | 34.90421 | -116.65191 | 30754 ft | 520 kts | 40° |
| 2026-04-25 06:34 | 34.92953 | -116.62047 | 31010 ft | 519 kts | 40° |
| 2026-04-25 06:34 | 34.95489 | -116.58894 | 31254 ft | 519 kts | 40° |
| 2026-04-25 06:35 | 34.98020 | -116.55745 | 31476 ft | 521 kts | 39° |
| 2026-04-25 06:35 | 35.03125 | -116.49391 | 31716 ft | 526 kts | 39° |
| 2026-04-25 06:35 | 35.05682 | -116.46202 | 31972 ft | 525 kts | 39° |
| 2026-04-25 06:36 | 35.08206 | -116.43049 | 32190 ft | 525 kts | 39° |
| 2026-04-25 06:36 | 35.10767 | -116.39848 | 32400 ft | 526 kts | 39° |
| 2026-04-25 06:36 | 35.13324 | -116.36647 | 32595 ft | 527 kts | 39° |
| 2026-04-25 06:36 | 35.15884 | -116.33442 | 32802 ft | 527 kts | 39° |
| 2026-04-25 06:37 | 35.18446 | -116.30232 | 33015 ft | 528 kts | 39° |
| 2026-04-25 06:37 | 35.21011 | -116.27015 | 33228 ft | 529 kts | 39° |
| 2026-04-25 06:37 | 35.23584 | -116.23787 | 33365 ft | 530 kts | 39° |
| 2026-04-25 06:37 | 35.26161 | -116.20543 | 33508 ft | 532 kts | 39° |
| 2026-04-25 06:38 | 35.28735 | -116.17304 | 33755 ft | 531 kts | 39° |
| 2026-04-25 06:38 | 35.31316 | -116.14054 | 33922 ft | 531 kts | 39° |
| 2026-04-25 06:38 | 35.33889 | -116.10812 | 34085 ft | 532 kts | 39° |
| 2026-04-25 06:38 | 35.36471 | -116.07555 | 34274 ft | 531 kts | 39° |
| 2026-04-25 06:39 | 35.39043 | -116.04306 | 34489 ft | 530 kts | 39° |
| 2026-04-25 06:39 | 35.41609 | -116.01061 | 34706 ft | 530 kts | 39° |
| 2026-04-25 06:39 | 35.44172 | -115.97818 | 34891 ft | 529 kts | 39° |
| 2026-04-25 06:39 | 35.46731 | -115.94576 | 35057 ft | 530 kts | 39° |
| 2026-04-25 06:40 | 35.49294 | -115.91327 | 35208 ft | 530 kts | 39° |
| 2026-04-25 06:40 | 35.51857 | -115.88075 | 35402 ft | 529 kts | 39° |
| 2026-04-25 06:40 | 35.54384 | -115.84863 | 35601 ft | 528 kts | 39° |
| 2026-04-25 06:40 | 35.56936 | -115.81618 | 35782 ft | 527 kts | 39° |
| 2026-04-25 06:41 | 35.59487 | -115.78370 | 35985 ft | 525 kts | 39° |
| 2026-04-25 06:41 | 35.62014 | -115.75147 | 36271 ft | 522 kts | 39° |
| 2026-04-25 06:41 | 35.64520 | -115.71949 | 36529 ft | 519 kts | 39° |
| 2026-04-25 06:41 | 35.67025 | -115.68750 | 36740 ft | 517 kts | 38° |
| 2026-04-25 06:42 | 35.69528 | -115.65553 | 36843 ft | 517 kts | 38° |
| 2026-04-25 06:42 | 35.74499 | -115.59199 | 36861 ft | 519 kts | 38° |
| 2026-04-25 06:43 | 35.79506 | -115.52781 | 36855 ft | 519 kts | 38° |
| 2026-04-25 06:43 | 35.84506 | -115.46356 | 36878 ft | 519 kts | 39° |
| 2026-04-25 06:44 | 35.89502 | -115.39925 | 36857 ft | 519 kts | 39° |
| 2026-04-25 06:44 | 35.94498 | -115.33481 | 36845 ft | 518 kts | 39° |
| 2026-04-25 06:45 | 35.99471 | -115.27054 | 36832 ft | 517 kts | 39° |
| 2026-04-25 06:45 | 36.04402 | -115.20670 | 36791 ft | 516 kts | 39° |
| 2026-04-25 06:46 | 36.08729 | -115.13479 | 36799 ft | 528 kts | 57° |
| 2026-04-25 06:46 | 36.11521 | -115.05033 | 36810 ft | 532 kts | 67° |
| 2026-04-25 06:47 | 36.14010 | -114.96411 | 36751 ft | 531 kts | 66° |
| 2026-04-25 06:47 | 36.16595 | -114.87850 | 36723 ft | 530 kts | 65° |
| 2026-04-25 06:48 | 36.19268 | -114.79345 | 36717 ft | 528 kts | 63° |
| 2026-04-25 06:48 | 36.22227 | -114.71035 | 36706 ft | 527 kts | 61° |
| 2026-04-25 06:49 | 36.24239 | -114.65560 | 36697 ft | 527 kts | 61° |
| 2026-04-25 06:50 | 36.31188 | -114.46264 | 36690 ft | 528 kts | 62° |
| 2026-04-25 06:50 | 36.34139 | -114.37926 | 36700 ft | 528 kts | 62° |
| 2026-04-25 06:51 | 36.37089 | -114.29572 | 36681 ft | 528 kts | 62° |
| 2026-04-25 06:51 | 36.40036 | -114.21213 | 36695 ft | 528 kts | 62° |
| 2026-04-25 06:52 | 36.42977 | -114.12847 | 36717 ft | 529 kts | 62° |
| 2026-04-25 06:52 | 36.45894 | -114.04527 | 36717 ft | 529 kts | 62° |
| 2026-04-25 06:53 | 36.48821 | -113.96159 | 36733 ft | 528 kts | 62° |
| 2026-04-25 06:53 | 36.51745 | -113.87774 | 36723 ft | 528 kts | 63° |
| 2026-04-25 06:54 | 36.54169 | -113.80804 | 36745 ft | 528 kts | 63° |
| 2026-04-25 06:54 | 36.57078 | -113.72420 | 36762 ft | 528 kts | 63° |
| 2026-04-25 06:55 | 36.59023 | -113.66801 | 36757 ft | 527 kts | 63° |
| 2026-04-25 06:56 | 36.66009 | -113.46532 | 36787 ft | 526 kts | 63° |
| 2026-04-25 06:56 | 36.68862 | -113.38216 | 36789 ft | 525 kts | 63° |
| 2026-04-25 06:57 | 36.71729 | -113.29837 | 36806 ft | 525 kts | 63° |
| 2026-04-25 06:57 | 36.74590 | -113.21450 | 36848 ft | 525 kts | 63° |
| 2026-04-25 06:58 | 36.77440 | -113.13072 | 36882 ft | 525 kts | 63° |
| 2026-04-25 06:58 | 36.80289 | -113.04674 | 36915 ft | 526 kts | 63° |
| 2026-04-25 06:59 | 36.83120 | -112.96307 | 36959 ft | 526 kts | 63° |
| 2026-04-25 06:59 | 36.85965 | -112.87871 | 36915 ft | 527 kts | 63° |
| 2026-04-25 07:00 | 36.88804 | -112.79431 | 36888 ft | 527 kts | 63° |
| 2026-04-25 07:00 | 36.91635 | -112.70989 | 36863 ft | 526 kts | 64° |
| 2026-04-25 07:01 | 36.94460 | -112.62543 | 36808 ft | 526 kts | 64° |
| 2026-04-25 07:01 | 36.96344 | -112.56898 | 36789 ft | 525 kts | 64° |
| 2026-04-25 07:02 | 36.99824 | -112.46438 | 36775 ft | 524 kts | 64° |
| 2026-04-25 07:02 | 37.02596 | -112.38082 | 36781 ft | 523 kts | 64° |
| 2026-04-25 07:03 | 37.05375 | -112.29677 | 36770 ft | 522 kts | 64° |
| 2026-04-25 07:03 | 37.08141 | -112.21280 | 36767 ft | 521 kts | 64° |
| 2026-04-25 07:04 | 37.10896 | -112.12908 | 36784 ft | 520 kts | 64° |
| 2026-04-25 07:04 | 37.13649 | -112.04520 | 36762 ft | 520 kts | 64° |
| 2026-04-25 07:05 | 37.16401 | -111.96103 | 36753 ft | 521 kts | 64° |
| 2026-04-25 07:05 | 37.19128 | -111.87739 | 36754 ft | 521 kts | 64° |
| 2026-04-25 07:06 | 37.21868 | -111.79307 | 36750 ft | 522 kts | 64° |
| 2026-04-25 07:06 | 37.24604 | -111.70867 | 36749 ft | 521 kts | 64° |
| 2026-04-25 07:07 | 37.27332 | -111.62435 | 36732 ft | 520 kts | 64° |
| 2026-04-25 07:07 | 37.30052 | -111.54017 | 36748 ft | 520 kts | 64° |
| 2026-04-25 07:08 | 37.32743 | -111.45622 | 36755 ft | 520 kts | 64° |
| 2026-04-25 07:08 | 37.35448 | -111.37168 | 36749 ft | 521 kts | 64° |
| 2026-04-25 07:09 | 37.38146 | -111.28700 | 36744 ft | 521 kts | 65° |
| 2026-04-25 07:09 | 37.40844 | -111.20231 | 36733 ft | 522 kts | 65° |
| 2026-04-25 07:10 | 37.43542 | -111.11753 | 36739 ft | 522 kts | 65° |
| 2026-04-25 07:10 | 37.46213 | -111.03320 | 36726 ft | 522 kts | 65° |
| 2026-04-25 07:11 | 37.48892 | -110.94832 | 36727 ft | 521 kts | 65° |
| 2026-04-25 07:11 | 37.51561 | -110.86349 | 36723 ft | 520 kts | 65° |
| 2026-04-25 07:12 | 37.54219 | -110.77877 | 36735 ft | 519 kts | 65° |
| 2026-04-25 07:12 | 37.58185 | -110.65192 | 36724 ft | 517 kts | 66° |
| 2026-04-25 07:13 | 37.60815 | -110.56743 | 36727 ft | 516 kts | 66° |
| 2026-04-25 07:13 | 37.63413 | -110.48379 | 36723 ft | 516 kts | 66° |
| 2026-04-25 07:14 | 37.66026 | -110.39942 | 36736 ft | 515 kts | 66° |
| 2026-04-25 07:14 | 37.68630 | -110.31506 | 36762 ft | 515 kts | 66° |
| 2026-04-25 07:15 | 37.71224 | -110.23075 | 36739 ft | 515 kts | 66° |
| 2026-04-25 07:15 | 37.73811 | -110.14642 | 36752 ft | 515 kts | 66° |
| 2026-04-25 07:16 | 37.76397 | -110.06189 | 36767 ft | 515 kts | 66° |
| 2026-04-25 07:16 | 37.78960 | -109.97787 | 36754 ft | 515 kts | 66° |
| 2026-04-25 07:17 | 37.81532 | -109.89326 | 36755 ft | 516 kts | 66° |
| 2026-04-25 07:17 | 37.84099 | -109.80866 | 36752 ft | 514 kts | 66° |
| 2026-04-25 07:18 | 37.86653 | -109.72406 | 36768 ft | 515 kts | 67° |
| 2026-04-25 07:18 | 37.89207 | -109.63923 | 36786 ft | 515 kts | 67° |
| 2026-04-25 07:19 | 37.91757 | -109.55433 | 36788 ft | 517 kts | 67° |
| 2026-04-25 07:19 | 37.94293 | -109.46963 | 36780 ft | 518 kts | 67° |
| 2026-04-25 07:20 | 37.96845 | -109.38412 | 36761 ft | 519 kts | 67° |
| 2026-04-25 07:20 | 37.99392 | -109.29853 | 36765 ft | 519 kts | 67° |
| 2026-04-25 07:21 | 38.01932 | -109.21286 | 36758 ft | 519 kts | 67° |
| 2026-04-25 07:21 | 38.04466 | -109.12718 | 36772 ft | 518 kts | 67° |
| 2026-04-25 07:22 | 38.06991 | -109.04148 | 36761 ft | 518 kts | 67° |
| 2026-04-25 07:22 | 38.09510 | -108.95578 | 36750 ft | 518 kts | 67° |
| 2026-04-25 07:23 | 38.12417 | -108.87255 | 36740 ft | 514 kts | 60° |
| 2026-04-25 07:23 | 38.15662 | -108.79240 | 36741 ft | 513 kts | 59° |
| 2026-04-25 07:24 | 38.18933 | -108.71181 | 36748 ft | 513 kts | 60° |
| 2026-04-25 07:24 | 38.22149 | -108.63072 | 36744 ft | 513 kts | 60° |
| 2026-04-25 07:25 | 38.25320 | -108.54963 | 36762 ft | 512 kts | 60° |
| 2026-04-25 07:25 | 38.28493 | -108.46815 | 36752 ft | 513 kts | 60° |
| 2026-04-25 07:26 | 38.31655 | -108.38679 | 36766 ft | 513 kts | 60° |
| 2026-04-25 07:26 | 38.34799 | -108.30577 | 36762 ft | 514 kts | 61° |
| 2026-04-25 07:27 | 38.37965 | -108.22399 | 36798 ft | 515 kts | 61° |
| 2026-04-25 07:27 | 38.41135 | -108.14188 | 36836 ft | 516 kts | 61° |
| 2026-04-25 07:28 | 38.44298 | -108.05970 | 36875 ft | 516 kts | 61° |
| 2026-04-25 07:28 | 38.47456 | -107.97745 | 36898 ft | 516 kts | 61° |
| 2026-04-25 07:29 | 38.50609 | -107.89510 | 36895 ft | 516 kts | 61° |
| 2026-04-25 07:29 | 38.53753 | -107.81278 | 36899 ft | 516 kts | 61° |
| 2026-04-25 07:30 | 38.55326 | -107.77149 | 36753 ft | 516 kts | 61° |
| 2026-04-25 07:30 | 38.56896 | -107.73025 | 36764 ft | 516 kts | 61° |
| 2026-04-25 07:30 | 38.60028 | -107.64779 | 36735 ft | 515 kts | 62° |
| 2026-04-25 07:31 | 38.63151 | -107.56535 | 36748 ft | 515 kts | 61° |
| 2026-04-25 07:31 | 38.66243 | -107.48346 | 36754 ft | 515 kts | 62° |
| 2026-04-25 07:32 | 38.69355 | -107.40084 | 36760 ft | 515 kts | 62° |
| 2026-04-25 07:32 | 38.72462 | -107.31813 | 36776 ft | 515 kts | 62° |
| 2026-04-25 07:33 | 38.75565 | -107.23532 | 36764 ft | 515 kts | 62° |
| 2026-04-25 07:33 | 38.78658 | -107.15253 | 36757 ft | 515 kts | 62° |
| 2026-04-25 07:34 | 38.81740 | -107.06981 | 36757 ft | 513 kts | 62° |
| 2026-04-25 07:34 | 38.84787 | -106.98782 | 36702 ft | 513 kts | 62° |
| 2026-04-25 07:35 | 38.86331 | -106.94621 | 36141 ft | 518 kts | 62° |
| 2026-04-25 07:35 | 38.87874 | -106.90454 | 35616 ft | 516 kts | 62° |
| 2026-04-25 07:35 | 38.89419 | -106.86277 | 35002 ft | 518 kts | 63° |
| 2026-04-25 07:35 | 38.90963 | -106.82095 | 34379 ft | 519 kts | 63° |
| 2026-04-25 07:36 | 38.92511 | -106.77897 | 33685 ft | 521 kts | 63° |
| 2026-04-25 07:36 | 38.94061 | -106.73687 | 32949 ft | 521 kts | 63° |
| 2026-04-25 07:36 | 38.95606 | -106.69485 | 32367 ft | 517 kts | 63° |
| 2026-04-25 07:36 | 38.97118 | -106.65361 | 32194 ft | 504 kts | 63° |
| 2026-04-25 07:37 | 38.98622 | -106.61260 | 31339 ft | 508 kts | 64° |
| 2026-04-25 07:37 | 39.00119 | -106.57170 | 30826 ft | 505 kts | 64° |
| 2026-04-25 07:37 | 39.01610 | -106.53094 | 30390 ft | 500 kts | 64° |
| 2026-04-25 07:37 | 39.03081 | -106.49066 | 29927 ft | 495 kts | 64° |
| 2026-04-25 07:38 | 39.04522 | -106.45116 | 29404 ft | 491 kts | 64° |
| 2026-04-25 07:38 | 39.05978 | -106.41118 | 28952 ft | 484 kts | 64° |
| 2026-04-25 07:38 | 39.07379 | -106.37265 | 28480 ft | 479 kts | 64° |
| 2026-04-25 07:38 | 39.08782 | -106.33402 | 28013 ft | 474 kts | 64° |
| 2026-04-25 07:39 | 39.10172 | -106.29570 | 27560 ft | 469 kts | 65° |
| 2026-04-25 07:39 | 39.11543 | -106.25785 | 27078 ft | 465 kts | 65° |
| 2026-04-25 07:39 | 39.12907 | -106.22016 | 26587 ft | 461 kts | 65° |
| 2026-04-25 07:39 | 39.14255 | -106.18285 | 26102 ft | 458 kts | 65° |
| 2026-04-25 07:40 | 39.15592 | -106.14582 | 25612 ft | 454 kts | 65° |
| 2026-04-25 07:40 | 39.16917 | -106.10907 | 25131 ft | 450 kts | 65° |
| 2026-04-25 07:40 | 39.18231 | -106.07255 | 24650 ft | 447 kts | 65° |
| 2026-04-25 07:40 | 39.19534 | -106.03632 | 24168 ft | 444 kts | 65° |
| 2026-04-25 07:41 | 39.20827 | -106.00032 | 23684 ft | 441 kts | 65° |
| 2026-04-25 07:41 | 39.22095 | -105.96497 | 23171 ft | 438 kts | 65° |
| 2026-04-25 07:41 | 39.23368 | -105.92942 | 22551 ft | 435 kts | 65° |
| 2026-04-25 07:41 | 39.24630 | -105.89412 | 22079 ft | 431 kts | 65° |
| 2026-04-25 07:42 | 39.25879 | -105.85918 | 21621 ft | 427 kts | 65° |
| 2026-04-25 07:42 | 39.27118 | -105.82448 | 21163 ft | 423 kts | 65° |
| 2026-04-25 07:42 | 39.28345 | -105.79007 | 20709 ft | 420 kts | 65° |
| 2026-04-25 07:42 | 39.29559 | -105.75598 | 20279 ft | 417 kts | 65° |
| 2026-04-25 07:43 | 39.30768 | -105.72200 | 19843 ft | 414 kts | 65° |
| 2026-04-25 07:43 | 39.31956 | -105.68857 | 19673 ft | 404 kts | 65° |
| 2026-04-25 07:43 | 39.33121 | -105.65592 | 19413 ft | 397 kts | 64° |
| 2026-04-25 07:43 | 39.33894 | -105.63466 | 19262 ft | 394 kts | 65° |
| 2026-04-25 07:44 | 39.35456 | -105.59206 | 18759 ft | 391 kts | 64° |
| 2026-04-25 07:44 | 39.36617 | -105.56039 | 18344 ft | 389 kts | 65° |
| 2026-04-25 07:44 | 39.37379 | -105.53954 | 18092 ft | 387 kts | 64° |
| 2026-04-25 07:44 | 39.38527 | -105.50802 | 17640 ft | 385 kts | 65° |
| 2026-04-25 07:45 | 39.39657 | -105.47699 | 17490 ft | 376 kts | 65° |
| 2026-04-25 07:45 | 39.40758 | -105.44670 | 17321 ft | 368 kts | 65° |
| 2026-04-25 07:45 | 39.41840 | -105.41711 | 17114 ft | 361 kts | 63° |
| 2026-04-25 07:45 | 39.43036 | -105.38871 | 16749 ft | 358 kts | 59° |
| 2026-04-25 07:46 | 39.44285 | -105.36139 | 16412 ft | 355 kts | 58° |
| 2026-04-25 07:46 | 39.45550 | -105.33406 | 16134 ft | 353 kts | 58° |
| 2026-04-25 07:46 | 39.46821 | -105.30637 | 15770 ft | 352 kts | 58° |
| 2026-04-25 07:46 | 39.48040 | -105.27950 | 15430 ft | 351 kts | 59° |
| 2026-04-25 07:47 | 39.49265 | -105.25227 | 15093 ft | 349 kts | 59° |
| 2026-04-25 07:47 | 39.50481 | -105.22507 | 14742 ft | 348 kts | 59° |
| 2026-04-25 07:47 | 39.51693 | -105.19798 | 14456 ft | 346 kts | 58° |
| 2026-04-25 07:47 | 39.53038 | -105.17239 | 14108 ft | 342 kts | 42° |
| 2026-04-25 07:48 | 39.54968 | -105.15563 | 13932 ft | 326 kts | 18° |
| 2026-04-25 07:48 | 39.57098 | -105.14852 | 13893 ft | 307 kts | 359° |
| 2026-04-25 07:48 | 39.59198 | -105.14791 | 13641 ft | 302 kts | 355° |
| 2026-04-25 07:48 | 39.61284 | -105.14825 | 13430 ft | 297 kts | 355° |
| 2026-04-25 07:49 | 39.63308 | -105.14851 | 13225 ft | 292 kts | 355° |
| 2026-04-25 07:49 | 39.65314 | -105.14861 | 13090 ft | 285 kts | 355° |
| 2026-04-25 07:49 | 39.67267 | -105.14862 | 12970 ft | 276 kts | 356° |
| 2026-04-25 07:49 | 39.69154 | -105.14436 | 12687 ft | 281 kts | 24° |
| 2026-04-25 07:50 | 39.70826 | -105.13140 | 12497 ft | 278 kts | 30° |
| 2026-04-25 07:50 | 39.72429 | -105.11781 | 12298 ft | 271 kts | 31° |
| 2026-04-25 07:50 | 39.73986 | -105.10454 | 12029 ft | 265 kts | 31° |
| 2026-04-25 07:50 | 39.75509 | -105.09160 | 11771 ft | 259 kts | 31° |
| 2026-04-25 07:51 | 39.77005 | -105.07895 | 11514 ft | 253 kts | 31° |
| 2026-04-25 07:51 | 39.78467 | -105.06662 | 11270 ft | 248 kts | 31° |
| 2026-04-25 07:51 | 39.79897 | -105.05459 | 11014 ft | 242 kts | 31° |
| 2026-04-25 07:51 | 39.81290 | -105.04289 | 10789 ft | 235 kts | 31° |
| 2026-04-25 07:52 | 39.82649 | -105.03148 | 10573 ft | 229 kts | 31° |
| 2026-04-25 07:52 | 39.83965 | -105.02043 | 10387 ft | 219 kts | 31° |
| 2026-04-25 07:52 | 39.85221 | -105.00988 | 10086 ft | 214 kts | 32° |
| 2026-04-25 07:52 | 39.86430 | -104.99969 | 9991 ft | 199 kts | 34° |
| 2026-04-25 07:53 | 39.87295 | -104.98696 | 9919 ft | 181 kts | 63° |
| 2026-04-25 07:53 | 39.87789 | -104.97132 | 9999 ft | 201 kts | 79° |
| 2026-04-25 07:53 | 39.87966 | -104.95216 | 9784 ft | 222 kts | 88° |
| 2026-04-25 07:53 | 39.87994 | -104.93239 | 9523 ft | 219 kts | 91° |
| 2026-04-25 07:54 | 39.87977 | -104.91282 | 9218 ft | 213 kts | 90° |
| 2026-04-25 07:54 | 39.87958 | -104.89379 | 8942 ft | 206 kts | 90° |
| 2026-04-25 07:54 | 39.87939 | -104.87549 | 8655 ft | 199 kts | 90° |
| 2026-04-25 07:54 | 39.87922 | -104.85826 | 8400 ft | 186 kts | 88° |
| 2026-04-25 07:55 | 39.87906 | -104.84211 | 8153 ft | 173 kts | 88° |
| 2026-04-25 07:55 | 39.87892 | -104.82678 | 7942 ft | 167 kts | 88° |
| 2026-04-25 07:55 | 39.87879 | -104.81102 | 7796 ft | 178 kts | 88° |
| 2026-04-25 07:55 | 39.87864 | -104.79503 | 7496 ft | 172 kts | 87° |
| 2026-04-25 07:56 | 39.87851 | -104.77972 | 7262 ft | 167 kts | 85° |
| 2026-04-25 07:56 | 39.87838 | -104.76484 | 7072 ft | 162 kts | 85° |
| 2026-04-25 07:56 | 39.87825 | -104.75014 | 6857 ft | 162 kts | 84° |
| 2026-04-25 07:56 | 39.87814 | -104.73574 | 6642 ft | 161 kts | 85° |
| 2026-04-25 07:57 | 39.87802 | -104.72125 | 6403 ft | 159 kts | 84° |
| 2026-04-25 07:57 | 39.87791 | -104.70683 | 6154 ft | 160 kts | 86° |
| 2026-04-25 07:57 | 39.87779 | -104.69258 | 5908 ft | 154 kts | 84° |
| 2026-04-25 07:57 | 39.87767 | -104.67869 | 5666 ft | 151 kts | 84° |
| 2026-04-25 07:58 | 39.87758 | -104.66508 | 5454 ft | 151 kts | 87° |
| 2026-04-25 07:58 | 39.87755 | -104.65191 | 5389 ft | 132 kts | 91° |
| 2026-04-25 07:58 | 39.87742 | -104.64191 | 5371 ft | 89 kts | 91° |
| 2026-04-25 07:58 | 39.87736 | -104.63577 | 5368 ft | 47 kts | 90° |
| 2026-04-25 07:59 | 39.87725 | -104.63285 | 5372 ft | 28 kts | 102° |
| 2026-04-25 07:59 | 39.87662 | -104.63056 | 5363 ft | 26 kts | 120° |
| 2026-04-25 07:59 | 39.87607 | -104.62935 | 5362 ft | 0 kts | 119° |
| 2026-04-25 08:00 | 39.87602 | -104.62925 | 5361 ft | 3 kts | 130° |
| 2026-04-25 08:00 | 39.87585 | -104.62934 | 5362 ft | 4 kts | 227° |
| 2026-04-25 08:01 | 39.87572 | -104.62966 | 5361 ft | 4 kts | 253° |
| 2026-04-25 08:01 | 39.87569 | -104.63001 | 5362 ft | 4 kts | 266° |
| 2026-04-25 08:01 | 39.87569 | -104.63035 | 5359 ft | 4 kts | 269° |
| 2026-04-25 08:01 | 39.87569 | -104.63069 | 5364 ft | 4 kts | 271° |
| 2026-04-25 08:02 | 39.87570 | -104.63103 | 5364 ft | 4 kts | 271° |
| 2026-04-25 08:02 | 39.87570 | -104.63136 | 5365 ft | 4 kts | 270° |
| 2026-04-25 08:02 | 39.87570 | -104.63168 | 5365 ft | 4 kts | 270° |
| 2026-04-25 08:02 | 39.87571 | -104.63199 | 5365 ft | 3 kts | 271° |
| 2026-04-25 08:03 | 39.87571 | -104.63230 | 5365 ft | 3 kts | 271° |
| 2026-04-25 08:03 | 39.87572 | -104.63261 | 5365 ft | 3 kts | 270° |
| 2026-04-25 08:03 | 39.87571 | -104.63291 | 5365 ft | 3 kts | 270° |
| 2026-04-25 08:03 | 39.87571 | -104.63320 | 5365 ft | 3 kts | 270° |
| 2026-04-25 08:04 | 39.87571 | -104.63353 | 5366 ft | 4 kts | 270° |
| 2026-04-25 08:04 | 39.87571 | -104.63392 | 5365 ft | 5 kts | 270° |
| 2026-04-25 08:04 | 39.87572 | -104.63438 | 5364 ft | 5 kts | 270° |
| 2026-04-25 08:04 | 39.87572 | -104.63485 | 5367 ft | 5 kts | 271° |
| 2026-04-25 08:05 | 39.87572 | -104.63536 | 5368 ft | 6 kts | 270° |
| 2026-04-25 08:05 | 39.87573 | -104.63597 | 5367 ft | 7 kts | 270° |
| 2026-04-25 08:05 | 39.87573 | -104.63674 | 5367 ft | 9 kts | 271° |
| 2026-04-25 08:05 | 39.87574 | -104.63773 | 5367 ft | 13 kts | 270° |
| 2026-04-25 08:06 | 39.87575 | -104.63898 | 5368 ft | 15 kts | 271° |
| 2026-04-25 08:06 | 39.87576 | -104.64033 | 5367 ft | 15 kts | 270° |
| 2026-04-25 08:06 | 39.87577 | -104.64174 | 5371 ft | 16 kts | 270° |
| 2026-04-25 08:06 | 39.87578 | -104.64331 | 5372 ft | 18 kts | 271° |
| 2026-04-25 08:07 | 39.87580 | -104.64495 | 5376 ft | 18 kts | 271° |
| 2026-04-25 08:07 | 39.87580 | -104.64652 | 5378 ft | 17 kts | 270° |
| 2026-04-25 08:07 | 39.87582 | -104.64806 | 5380 ft | 17 kts | 270° |
| 2026-04-25 08:07 | 39.87582 | -104.64954 | 5382 ft | 16 kts | 270° |
| 2026-04-25 08:08 | 39.87583 | -104.65097 | 5384 ft | 16 kts | 271° |
| 2026-04-25 08:08 | 39.87584 | -104.65245 | 5385 ft | 17 kts | 270° |
| 2026-04-25 08:08 | 39.87585 | -104.65402 | 5386 ft | 18 kts | 271° |
| 2026-04-25 08:08 | 39.87587 | -104.65567 | 5387 ft | 18 kts | 271° |
| 2026-04-25 08:09 | 39.87532 | -104.65690 | 5386 ft | 19 kts | 189° |
| 2026-04-25 08:09 | 39.87479 | -104.65841 | 5385 ft | 21 kts | 270° |
| 2026-04-25 08:09 | 39.87421 | -104.65975 | 5386 ft | 20 kts | 162° |
| 2026-04-25 08:09 | 39.87378 | -104.65861 | 5383 ft | 0 kts | 110° |